Terminal Aerodrome Forecast
Issued by NWS

Home | Current Version | Previous Version | Text Only | Print | Product List | Glossary On
Versions: 1 2 3 4 5 6 7 8 9 10 11 12 13 14 15 16 17 18 19
000
FTUS43 KDLH 031100 RRA
TAFHIB
TAF
KHIB 031145Z 0312/0412 23007KT P6SM SCT100
     FM031600 28010KT P6SM BKN080
     FM031800 32012G20KT P6SM BKN100
     FM040100 32006KT P6SM SCT100=

USA.gov is the U.S. government's official web portal to all federal, state and local government web resources and services.